Time;durP1;ratioP1;P1;durP2;ratioP2;P2;SDS_P1;SDS_P2;PMS_P1;PMS_P2;Temp;Humidity;BMP_temperature;BMP_pressure;BME280_temperature;BME280_humidity;BME280_pressure;Samples;Min_cycle;Max_cycle;Signal;HPM_P1;HPM_P2
2022/12/21 00:01:46;;;;;;;0.60;0.60;;;8.80;99.90;;;;;;5073989;28;20678;-69
2022/12/21 00:04:12;;;;;;;0.40;0.40;;;8.70;99.90;;;;;;5073743;28;20169;-69
2022/12/21 00:06:38;;;;;;;0.50;0.50;;;8.90;99.90;;;;;;5073964;28;20186;-69
2022/12/21 00:09:07;;;;;;;0.30;0.30;;;8.90;99.90;;;;;;5074012;28;20545;-69
2022/12/21 00:11:35;;;;;;;0.77;0.65;;;8.80;99.90;;;;;;5074149;28;20595;-69
2022/12/21 00:14:02;;;;;;;0.30;0.30;;;8.80;99.90;;;;;;5073793;28;20253;-69
2022/12/21 00:16:30;;;;;;;0.60;0.60;;;8.80;99.90;;;;;;5073558;28;20264;-69
2022/12/21 00:18:57;;;;;;;1.45;1.02;;;8.90;99.90;;;;;;5073571;28;20189;-68
2022/12/21 00:21:27;;;;;;;0.30;0.30;;;8.90;99.90;;;;;;5073927;28;20181;-69
2022/12/21 00:23:58;;;;;;;0.52;0.52;;;8.80;99.90;;;;;;5073735;28;20173;-69
2022/12/21 00:26:25;;;;;;;0.40;0.40;;;8.70;99.90;;;;;;5073463;28;20173;-68
2022/12/21 00:28:53;;;;;;;0.30;0.30;;;8.70;99.90;;;;;;5073282;28;20189;-69
2022/12/21 00:31:25;;;;;;;0.38;0.38;;;8.70;99.90;;;;;;5073447;28;20217;-70
2022/12/21 00:33:51;;;;;;;0.50;0.50;;;8.70;99.90;;;;;;5073637;28;20219;-70
2022/12/21 00:36:20;;;;;;;0.38;0.38;;;8.80;99.90;;;;;;5073440;28;20585;-70
2022/12/21 00:38:49;;;;;;;0.50;0.50;;;8.80;99.90;;;;;;5073912;28;20284;-71
2022/12/21 00:41:19;;;;;;;0.50;0.40;;;8.80;99.90;;;;;;5073546;28;20169;-69
2022/12/21 00:43:45;;;;;;;0.40;0.40;;;8.90;99.90;;;;;;5073541;28;20224;-70
2022/12/21 00:46:22;;;;;;;0.60;0.60;;;8.90;99.90;;;;;;5073120;28;20719;-71
2022/12/21 00:48:48;;;;;;;0.70;0.70;;;8.80;99.90;;;;;;5073385;28;20220;-69
2022/12/21 00:51:18;;;;;;;0.40;0.40;;;8.80;99.90;;;;;;5073906;28;20194;-69
2022/12/21 00:53:44;;;;;;;1.00;0.88;;;8.90;99.90;;;;;;5073340;28;20173;-68
2022/12/21 00:56:10;;;;;;;0.30;0.30;;;8.80;99.90;;;;;;5073684;28;20173;-71
2022/12/21 00:58:37;;;;;;;0.57;0.57;;;8.70;99.90;;;;;;5073357;28;20165;-70
2022/12/21 01:01:13;;;;;;;0.45;0.45;;;8.60;99.90;;;;;;5073558;28;20178;-70
2022/12/21 01:03:39;;;;;;;0.70;0.70;;;8.70;99.90;;;;;;5073721;28;20173;-68
2022/12/21 01:06:05;;;;;;;0.47;0.47;;;8.80;99.90;;;;;;5072860;28;20169;-69
2022/12/21 01:08:31;;;;;;;0.37;0.37;;;8.90;99.90;;;;;;5073386;28;20170;-71
2022/12/21 01:11:02;;;;;;;0.60;0.43;;;8.90;99.90;;;;;;5072977;28;20846;-70
2022/12/21 01:13:29;;;;;;;0.30;0.30;;;8.90;99.90;;;;;;5073064;28;20177;-70
2022/12/21 01:15:55;;;;;;;0.63;0.63;;;9.00;99.90;;;;;;5072973;28;20182;-71
2022/12/21 01:18:21;;;;;;;0.50;0.50;;;9.00;99.90;;;;;;5073520;28;20165;-70
2022/12/21 01:20:49;;;;;;;0.30;0.30;;;9.00;99.90;;;;;;5073606;28;20243;-70
2022/12/21 01:23:15;;;;;;;0.40;0.40;;;9.00;99.90;;;;;;5073125;28;20538;-71
2022/12/21 01:25:45;;;;;;;0.43;0.43;;;9.00;99.90;;;;;;5075261;28;20169;-71
2022/12/21 01:28:12;;;;;;;0.40;0.40;;;9.00;99.90;;;;;;5076153;28;20449;-70
2022/12/21 01:30:41;;;;;;;1.08;1.08;;;9.10;99.90;;;;;;5076999;28;20568;-68
2022/12/21 01:33:16;;;;;;;0.30;0.30;;;9.10;99.90;;;;;;5076975;28;20172;-71
2022/12/21 01:35:43;;;;;;;0.70;0.70;;;9.10;99.90;;;;;;5076494;28;20176;-70
2022/12/21 01:38:10;;;;;;;0.40;0.40;;;9.10;99.90;;;;;;5076644;28;20244;-69
2022/12/21 01:40:37;;;;;;;0.60;0.60;;;9.10;99.90;;;;;;5076653;28;20195;-71
2022/12/21 01:43:37;;;;;;;0.30;0.30;;;9.10;99.90;;;;;;5076774;28;20197;-70
2022/12/21 01:46:05;;;;;;;0.38;0.38;;;9.10;99.90;;;;;;5076008;28;20269;-71
2022/12/21 01:48:45;;;;;;;0.40;0.40;;;9.20;99.90;;;;;;5076272;28;20180;-69
2022/12/21 01:51:12;;;;;;;1.23;1.13;;;9.10;99.90;;;;;;5076308;28;20238;-70
2022/12/21 01:53:52;;;;;;;0.50;0.40;;;9.00;99.90;;;;;;5076581;28;20178;-71
2022/12/21 01:56:23;;;;;;;0.50;0.50;;;9.00;99.90;;;;;;5075934;28;20169;-71
2022/12/21 01:58:48;;;;;;;0.40;0.40;;;9.00;99.90;;;;;;5076140;28;20196;-71
2022/12/21 02:01:14;;;;;;;5.03;1.80;;;9.00;99.90;;;;;;5076276;28;20180;-70
2022/12/21 02:03:45;;;;;;;1.10;0.80;;;9.00;99.90;;;;;;5075095;28;20227;-71
2022/12/21 02:06:36;;;;;;;0.82;0.55;;;9.00;99.90;;;;;;5076335;28;20220;-71
2022/12/21 02:09:03;;;;;;;0.30;0.30;;;9.10;99.90;;;;;;5075985;28;20194;-71
2022/12/21 02:11:28;;;;;;;0.40;0.40;;;9.10;99.90;;;;;;5075820;28;20201;-71
2022/12/21 02:13:54;;;;;;;0.53;0.53;;;9.10;99.90;;;;;;5076347;28;20170;-71
2022/12/21 02:16:35;;;;;;;0.43;0.43;;;9.00;99.90;;;;;;5075591;28;20208;-71
2022/12/21 02:19:12;;;;;;;0.68;0.68;;;9.00;99.90;;;;;;5075794;28;20530;-68
2022/12/21 02:22:00;;;;;;;0.30;0.30;;;9.00;99.90;;;;;;5075745;28;20165;-69
2022/12/21 02:24:49;;;;;;;0.30;0.30;;;9.00;99.90;;;;;;5075643;28;20218;-69
2022/12/21 02:27:48;;;;;;;0.50;0.40;;;9.00;99.90;;;;;;5075335;28;20626;-69
2022/12/21 02:30:45;;;;;;;0.30;0.30;;;9.00;99.90;;;;;;5075659;28;20202;-68
2022/12/21 02:33:17;;;;;;;0.40;0.40;;;9.00;99.90;;;;;;5075461;28;20185;-68
2022/12/21 02:36:01;;;;;;;0.40;0.40;;;9.00;99.90;;;;;;5074405;28;20158;-68
2022/12/21 02:38:52;;;;;;;0.40;0.40;;;9.00;99.90;;;;;;5075293;28;20166;-69
2022/12/21 02:41:36;;;;;;;0.40;0.40;;;9.00;99.90;;;;;;5075746;28;20252;-69
2022/12/21 02:44:15;;;;;;;0.55;0.47;;;9.20;99.90;;;;;;5075030;28;20180;-68
2022/12/21 02:47:08;;;;;;;0.40;0.40;;;9.20;99.90;;;;;;5075441;28;20680;-68
2022/12/21 02:49:59;;;;;;;1.13;1.13;;;9.20;99.90;;;;;;5075042;28;20270;-68
2022/12/21 02:52:36;;;;;;;0.40;0.40;;;9.20;99.90;;;;;;5073691;28;20212;-69
2022/12/21 02:55:02;;;;;;;0.85;0.80;;;9.20;99.90;;;;;;5075198;28;20557;-68
2022/12/21 02:57:40;;;;;;;0.30;0.30;;;9.30;99.90;;;;;;5074883;28;20219;-68
2022/12/21 03:00:13;;;;;;;0.43;0.43;;;9.30;99.90;;;;;;5075463;28;20209;-68
2022/12/21 03:06:00;;;;;;;0.50;0.50;;;9.30;99.90;;;;;;5074837;28;20184;-68
2022/12/21 03:08:55;;;;;;;0.30;0.30;;;9.30;99.90;;;;;;5075044;28;20169;-68
2022/12/21 03:11:34;;;;;;;0.50;0.50;;;9.30;99.90;;;;;;5073331;28;20209;-69
2022/12/21 03:14:11;;;;;;;0.50;0.50;;;9.30;99.90;;;;;;5074754;28;20176;-68
2022/12/21 03:16:50;;;;;;;0.30;0.30;;;9.40;99.90;;;;;;5074973;28;20205;-71
2022/12/21 03:19:47;;;;;;;0.40;0.40;;;9.30;99.90;;;;;;5074832;28;20188;-71
2022/12/21 03:22:40;;;;;;;0.40;0.40;;;9.40;99.90;;;;;;5074600;28;20674;-70
2022/12/21 03:25:18;;;;;;;0.40;0.40;;;9.40;99.90;;;;;;5074295;28;20177;-71
2022/12/21 03:27:49;;;;;;;0.35;0.35;;;9.50;99.90;;;;;;5074570;28;20192;-70
2022/12/21 03:30:20;;;;;;;0.40;0.40;;;9.50;99.90;;;;;;5074331;28;20572;-70
2022/12/21 03:32:52;;;;;;;0.40;0.40;;;9.50;99.90;;;;;;5074488;28;20201;-71
2022/12/21 03:35:32;;;;;;;1.30;0.70;;;9.50;99.90;;;;;;5074036;28;20166;-69
2022/12/21 03:38:01;;;;;;;0.75;0.75;;;9.50;99.90;;;;;;5074656;28;20698;-68
2022/12/21 03:40:30;;;;;;;0.30;0.30;;;9.50;99.90;;;;;;5073959;28;20186;-69
2022/12/21 03:43:04;;;;;;;0.70;0.47;;;9.40;99.90;;;;;;5074171;28;20177;-69
2022/12/21 03:45:42;;;;;;;0.68;0.68;;;9.40;99.90;;;;;;5074290;28;20173;-69
2022/12/21 03:48:34;;;;;;;0.60;0.60;;;9.40;99.90;;;;;;5074160;28;20526;-68
2022/12/21 03:51:05;;;;;;;0.40;0.40;;;9.40;99.90;;;;;;5074079;28;20194;-68
2022/12/21 03:54:04;;;;;;;0.60;0.40;;;9.30;99.90;;;;;;5074231;28;20177;-68
2022/12/21 03:56:34;;;;;;;0.50;0.50;;;9.30;99.90;;;;;;5074038;28;20174;-69
2022/12/21 03:59:00;;;;;;;0.30;0.30;;;9.30;99.90;;;;;;5074411;28;20208;-69
2022/12/21 04:01:29;;;;;;;0.40;0.40;;;9.20;99.90;;;;;;5074048;28;20182;-68
2022/12/21 04:04:02;;;;;;;0.30;0.30;;;9.30;99.90;;;;;;5073712;28;20173;-69
2022/12/21 04:06:33;;;;;;;0.30;0.30;;;9.40;99.90;;;;;;5073851;28;20239;-69
2022/12/21 04:08:59;;;;;;;0.60;0.60;;;9.30;99.90;;;;;;5072748;28;20239;-69
2022/12/21 04:14:16;;;;;;;0.30;0.30;;;9.40;99.90;;;;;;5073631;28;20169;-69
2022/12/21 04:16:41;;;;;;;0.87;0.87;;;9.40;99.90;;;;;;5073943;28;20578;-69
2022/12/21 04:21:51;;;;;;;1.52;1.42;;;9.40;99.90;;;;;;5073505;28;20239;-69
2022/12/21 04:29:45;;;;;;;0.80;0.50;;;9.40;99.90;;;;;;5073497;28;20204;-68
2022/12/21 04:32:10;;;;;;;0.60;0.60;;;9.30;99.90;;;;;;5074021;28;20538;-69
2022/12/21 04:34:36;;;;;;;1.37;1.27;;;9.20;99.90;;;;;;5073435;28;20162;-68
2022/12/21 04:39:45;;;;;;;0.40;0.40;;;9.30;99.90;;;;;;5073736;28;20273;-69
2022/12/21 04:42:11;;;;;;;0.40;0.40;;;9.30;99.90;;;;;;5073885;28;20252;-69
2022/12/21 04:44:36;;;;;;;3.70;2.60;;;9.30;99.90;;;;;;5073200;28;20166;-69
2022/12/21 04:47:02;;;;;;;0.40;0.40;;;9.30;99.90;;;;;;5073407;28;20169;-68
2022/12/21 04:49:28;;;;;;;0.60;0.50;;;9.20;99.90;;;;;;5072096;28;20204;-69
2022/12/21 04:51:53;;;;;;;1.03;0.93;;;9.20;99.90;;;;;;5073436;28;20204;-69
2022/12/21 04:54:19;;;;;;;0.60;0.60;;;9.30;99.90;;;;;;5073185;28;20169;-69
2022/12/21 04:56:45;;;;;;;0.87;0.60;;;9.30;99.90;;;;;;5073437;28;20166;-69
2022/12/21 04:59:11;;;;;;;0.40;0.40;;;9.20;99.90;;;;;;5073644;28;20423;-69
2022/12/21 05:01:36;;;;;;;0.50;0.50;;;9.20;99.90;;;;;;5077120;28;20200;-69
2022/12/21 05:04:02;;;;;;;0.77;0.77;;;9.20;99.90;;;;;;5077194;28;20173;-69
2022/12/21 05:06:27;;;;;;;0.40;0.40;;;9.20;99.90;;;;;;5077351;28;20253;-66
2022/12/21 05:08:53;;;;;;;0.40;0.40;;;9.20;99.90;;;;;;5077167;28;20635;-65
2022/12/21 05:11:21;;;;;;;0.40;0.40;;;9.50;99.90;;;;;;5077362;28;20299;-69
2022/12/21 05:13:48;;;;;;;1.05;1.05;;;10.00;99.90;;;;;;5076926;28;20157;-68
2022/12/21 05:16:19;;;;;;;0.60;0.60;;;10.50;99.90;;;;;;5076640;28;20575;-69
2022/12/21 05:18:44;;;;;;;0.30;0.30;;;11.00;99.90;;;;;;5077079;28;20505;-68
2022/12/21 05:21:11;;;;;;;0.40;0.40;;;11.50;99.90;;;;;;5076850;28;20200;-69
2022/12/21 05:23:37;;;;;;;0.50;0.50;;;11.90;99.90;;;;;;5076985;28;20752;-68
2022/12/21 05:26:04;;;;;;;0.50;0.50;;;12.30;99.50;;;;;;5077058;28;20443;-69
2022/12/21 05:28:30;;;;;;;0.40;0.40;;;12.60;99.00;;;;;;5075095;28;20469;-67
2022/12/21 05:30:56;;;;;;;1.90;0.70;;;12.80;98.10;;;;;;5076584;28;20455;-68
2022/12/21 05:33:22;;;;;;;0.63;0.40;;;13.10;97.60;;;;;;5076622;28;20404;-69
2022/12/21 05:35:48;;;;;;;0.50;0.50;;;13.20;97.10;;;;;;5076530;28;20165;-69
2022/12/21 05:38:14;;;;;;;0.40;0.40;;;13.40;96.80;;;;;;5076834;28;20414;-69
2022/12/21 05:40:40;;;;;;;0.50;0.50;;;13.60;96.40;;;;;;5076853;28;20942;-69
2022/12/21 05:43:06;;;;;;;0.50;0.50;;;13.50;95.90;;;;;;5076898;28;20623;-69
2022/12/21 05:45:32;;;;;;;1.70;0.80;;;12.90;96.10;;;;;;5076259;28;20249;-69
2022/12/21 05:47:57;;;;;;;0.87;0.70;;;12.30;96.90;;;;;;5076785;28;20408;-70
2022/12/21 05:50:24;;;;;;;1.57;1.23;;;11.70;97.70;;;;;;5076386;28;20508;-69
2022/12/21 05:52:49;;;;;;;0.30;0.30;;;11.30;98.60;;;;;;5076549;28;20630;-69
2022/12/21 05:55:15;;;;;;;0.30;0.30;;;10.90;99.30;;;;;;5076016;28;20408;-69
2022/12/21 05:57:41;;;;;;;0.40;0.40;;;10.60;99.90;;;;;;5076197;28;20602;-67
2022/12/21 06:00:08;;;;;;;0.30;0.30;;;10.30;99.90;;;;;;5076416;28;20463;-68
2022/12/21 06:02:34;;;;;;;0.40;0.40;;;10.10;99.90;;;;;;5076090;28;20215;-67
2022/12/21 06:04:59;;;;;;;0.40;0.40;;;9.90;99.90;;;;;;5075756;28;20169;-68
2022/12/21 06:07:25;;;;;;;0.50;0.50;;;9.90;99.90;;;;;;5076477;28;20411;-66
2022/12/21 06:09:51;;;;;;;0.30;0.30;;;9.90;99.90;;;;;;5075864;28;20204;-68
2022/12/21 06:12:16;;;;;;;0.40;0.40;;;9.70;99.90;;;;;;5073748;28;20201;-67
2022/12/21 06:14:42;;;;;;;0.60;0.50;;;9.60;99.90;;;;;;5075636;28;20205;-67
2022/12/21 06:17:07;;;;;;;0.40;0.40;;;9.50;99.90;;;;;;5075881;28;20266;-67
2022/12/21 06:19:33;;;;;;;0.60;0.60;;;9.50;99.90;;;;;;5074621;28;20254;-68
2022/12/21 06:21:59;;;;;;;0.60;0.60;;;9.40;99.90;;;;;;5076136;28;20177;-69
2022/12/21 06:24:25;;;;;;;0.40;0.40;;;9.40;99.90;;;;;;5075893;28;20185;-69
2022/12/21 06:26:50;;;;;;;0.40;0.40;;;9.40;99.90;;;;;;5076185;28;20257;-67
2022/12/21 06:29:16;;;;;;;0.40;0.40;;;9.40;99.90;;;;;;5075497;28;20269;-71
2022/12/21 06:31:42;;;;;;;0.30;0.30;;;9.40;99.90;;;;;;5075508;28;20227;-71
2022/12/21 06:34:10;;;;;;;0.80;0.80;;;9.30;99.90;;;;;;5075445;28;20173;-72
2022/12/21 06:36:35;;;;;;;0.30;0.30;;;9.30;99.90;;;;;;5075413;28;20702;-69
2022/12/21 06:39:01;;;;;;;1.67;0.60;;;9.30;99.90;;;;;;5075658;28;20232;-67
2022/12/21 06:41:27;;;;;;;0.40;0.40;;;9.30;99.90;;;;;;5075103;28;20571;-70
2022/12/21 06:43:52;;;;;;;0.53;0.53;;;9.30;99.90;;;;;;5075247;28;20173;-68
2022/12/21 06:46:19;;;;;;;0.60;0.60;;;9.30;99.90;;;;;;5075126;28;20169;-69
2022/12/21 06:48:46;;;;;;;0.40;0.40;;;9.20;99.90;;;;;;5074921;28;20205;-68
2022/12/21 06:51:15;;;;;;;0.30;0.30;;;9.20;99.90;;;;;;5073397;28;20212;-69
2022/12/21 06:53:42;;;;;;;0.30;0.30;;;9.30;99.90;;;;;;5074170;28;20260;-68
2022/12/21 06:56:18;;;;;;;0.40;0.40;;;9.30;99.90;;;;;;5073155;28;20173;-70
2022/12/21 06:58:44;;;;;;;0.40;0.40;;;9.30;99.90;;;;;;5074602;28;20169;-68
2022/12/21 07:01:13;;;;;;;0.50;0.50;;;9.30;99.90;;;;;;5075247;28;20177;-69
2022/12/21 07:03:40;;;;;;;0.30;0.30;;;9.40;99.90;;;;;;5072741;28;20165;-69
2022/12/21 07:06:07;;;;;;;0.50;0.50;;;9.40;99.90;;;;;;5075103;28;20177;-70
2022/12/21 07:08:33;;;;;;;0.30;0.30;;;9.40;99.90;;;;;;5074947;28;20173;-70
2022/12/21 07:11:01;;;;;;;0.30;0.30;;;9.30;99.90;;;;;;5074635;28;20201;-70
2022/12/21 07:13:28;;;;;;;0.70;0.70;;;9.20;99.90;;;;;;5074784;28;20180;-72
2022/12/21 07:15:54;;;;;;;0.45;0.45;;;9.30;99.90;;;;;;5074701;28;20555;-71
2022/12/21 07:18:21;;;;;;;0.40;0.40;;;9.30;99.90;;;;;;5074846;28;20197;-70
2022/12/21 07:20:47;;;;;;;1.15;0.50;;;9.30;99.90;;;;;;5074975;28;20201;-71
2022/12/21 07:23:12;;;;;;;0.40;0.40;;;9.30;99.90;;;;;;5073781;28;20173;-70
2022/12/21 07:25:38;;;;;;;0.30;0.30;;;9.30;99.90;;;;;;5074333;28;20214;-68
2022/12/21 07:28:04;;;;;;;0.30;0.30;;;9.20;99.90;;;;;;5074275;28;20396;-69
2022/12/21 07:30:30;;;;;;;1.00;1.00;;;9.10;99.90;;;;;;5072233;28;20682;-69
2022/12/21 07:32:55;;;;;;;0.50;0.50;;;9.10;99.90;;;;;;5074665;28;20193;-69
2022/12/21 07:35:22;;;;;;;0.30;0.30;;;9.10;99.90;;;;;;5073682;28;20208;-69
2022/12/21 07:37:49;;;;;;;0.40;0.40;;;9.20;99.90;;;;;;5072535;28;20200;-69
2022/12/21 07:40:18;;;;;;;0.55;0.55;;;9.20;99.90;;;;;;5074321;28;20190;-71
2022/12/21 07:42:47;;;;;;;0.40;0.40;;;9.20;99.90;;;;;;5073053;28;20189;-70
2022/12/21 07:45:13;;;;;;;0.40;0.40;;;9.30;99.90;;;;;;5073798;28;20173;-72
2022/12/21 07:47:39;;;;;;;0.30;0.30;;;9.30;99.90;;;;;;5074334;28;20641;-75
2022/12/21 07:50:06;;;;;;;0.30;0.30;;;9.30;99.90;;;;;;5074518;28;20229;-74
2022/12/21 07:52:32;;;;;;;0.50;0.50;;;9.30;99.90;;;;;;5073701;28;20208;-70
2022/12/21 07:54:58;;;;;;;0.95;0.85;;;9.40;99.90;;;;;;5074024;28;20170;-68
2022/12/21 07:57:24;;;;;;;0.40;0.40;;;9.40;99.90;;;;;;5074157;28;20169;-69
2022/12/21 07:59:50;;;;;;;0.30;0.30;;;9.40;99.90;;;;;;5073700;28;20280;-72
2022/12/21 08:02:16;;;;;;;0.30;0.30;;;9.50;99.90;;;;;;5074204;28;20165;-69
2022/12/21 08:04:41;;;;;;;0.30;0.30;;;9.50;99.90;;;;;;5074023;28;20411;-71
2022/12/21 08:07:07;;;;;;;0.50;0.50;;;9.40;99.90;;;;;;5074073;28;20766;-70
2022/12/21 08:09:33;;;;;;;0.30;0.30;;;9.40;99.90;;;;;;5074255;28;20189;-70
2022/12/21 08:11:59;;;;;;;0.45;0.45;;;9.40;99.90;;;;;;5073878;28;20558;-68
2022/12/21 08:14:25;;;;;;;0.30;0.30;;;9.40;99.90;;;;;;5073739;28;20165;-68
2022/12/21 08:16:50;;;;;;;0.50;0.40;;;9.30;99.90;;;;;;5074054;28;20245;-70
2022/12/21 08:19:16;;;;;;;0.50;0.50;;;9.30;99.90;;;;;;5072877;28;20299;-68
2022/12/21 08:21:42;;;;;;;0.40;0.40;;;9.30;99.90;;;;;;5071499;28;20206;-68
2022/12/21 08:24:08;;;;;;;1.83;0.77;;;9.10;99.90;;;;;;5073715;28;20177;-68
2022/12/21 08:26:33;;;;;;;0.40;0.40;;;9.20;99.90;;;;;;5073782;28;20407;-70
2022/12/21 08:28:59;;;;;;;0.30;0.30;;;9.30;99.90;;;;;;5073410;28;20194;-68
2022/12/21 08:31:25;;;;;;;0.50;0.50;;;9.30;99.90;;;;;;5071623;28;20200;-69
2022/12/21 08:33:51;;;;;;;0.30;0.30;;;9.40;99.90;;;;;;5074076;28;20223;-68
2022/12/21 08:36:21;;;;;;;0.30;0.30;;;9.50;99.90;;;;;;5076925;28;20646;-70
2022/12/21 08:38:47;;;;;;;0.40;0.40;;;9.50;99.90;;;;;;5077800;28;20403;-69
2022/12/21 08:41:13;;;;;;;0.40;0.40;;;9.50;99.90;;;;;;5077826;28;20180;-69
2022/12/21 08:43:40;;;;;;;0.40;0.40;;;9.40;99.90;;;;;;5077889;28;20447;-69
2022/12/21 08:46:07;;;;;;;0.70;0.70;;;9.20;99.90;;;;;;5077808;28;20223;-69
2022/12/21 08:48:34;;;;;;;0.50;0.50;;;9.20;99.90;;;;;;5074960;28;20213;-69
2022/12/21 08:51:00;;;;;;;0.40;0.40;;;9.30;99.90;;;;;;5073266;28;20236;-69
2022/12/21 08:53:27;;;;;;;0.55;0.55;;;9.30;99.90;;;;;;5077202;28;20567;-69
2022/12/21 08:55:54;;;;;;;0.40;0.40;;;9.20;99.90;;;;;;5077096;28;20565;-68
2022/12/21 08:58:20;;;;;;;0.40;0.40;;;9.10;99.90;;;;;;5077283;28;20228;-69
2022/12/21 09:00:46;;;;;;;0.40;0.40;;;9.20;99.90;;;;;;5076943;28;20595;-69
2022/12/21 09:03:12;;;;;;;0.40;0.40;;;9.20;99.90;;;;;;5076920;28;20280;-69
2022/12/21 09:05:38;;;;;;;0.40;0.40;;;9.40;99.90;;;;;;5076800;28;20181;-69
2022/12/21 09:08:04;;;;;;;0.30;0.30;;;9.40;99.90;;;;;;5076961;28;20428;-69
2022/12/21 09:10:32;;;;;;;0.30;0.30;;;9.40;99.90;;;;;;5077127;28;20197;-69
2022/12/21 09:12:57;;;;;;;0.75;0.70;;;9.50;99.90;;;;;;5076952;28;20169;-69
2022/12/21 09:15:23;;;;;;;0.40;0.40;;;9.60;99.90;;;;;;5074755;28;20177;-69
2022/12/21 09:17:49;;;;;;;0.70;0.70;;;9.60;99.90;;;;;;5076715;28;20166;-67
2022/12/21 09:20:15;;;;;;;1.55;1.13;;;9.60;99.90;;;;;;5076958;28;20264;-67
2022/12/21 09:22:41;;;;;;;0.40;0.40;;;9.60;99.90;;;;;;5076790;28;20245;-68
2022/12/21 09:25:07;;;;;;;0.40;0.40;;;9.70;99.90;;;;;;5076398;28;20553;-68
2022/12/21 09:27:33;;;;;;;0.30;0.30;;;9.60;99.90;;;;;;5076653;28;20174;-67
2022/12/21 09:29:59;;;;;;;0.30;0.30;;;9.60;99.90;;;;;;5074672;28;20190;-68
2022/12/21 09:32:25;;;;;;;0.77;0.77;;;9.60;99.90;;;;;;5076595;28;20296;-68
2022/12/21 09:34:50;;;;;;;0.30;0.30;;;9.60;99.90;;;;;;5076265;28;20165;-67
2022/12/21 09:37:17;;;;;;;0.60;0.50;;;9.70;99.90;;;;;;5076296;28;20276;-67
2022/12/21 09:39:43;;;;;;;0.40;0.40;;;9.70;99.90;;;;;;5076219;28;20189;-68
2022/12/21 09:42:27;;;;;;;0.82;0.80;;;9.70;99.90;;;;;;5076227;28;20188;-67
2022/12/21 09:45:17;;;;;;;0.30;0.30;;;9.70;99.90;;;;;;5075909;28;20180;-68
2022/12/21 09:47:53;;;;;;;0.40;0.40;;;9.70;99.90;;;;;;5076258;28;20173;-68
2022/12/21 09:50:28;;;;;;;0.40;0.40;;;9.80;99.90;;;;;;5074146;28;20223;-68
2022/12/21 09:53:12;;;;;;;0.50;0.40;;;9.70;99.90;;;;;;5076713;28;20173;-67
2022/12/21 09:55:49;;;;;;;0.30;0.30;;;9.90;99.90;;;;;;5076168;28;20171;-71
2022/12/21 09:58:21;;;;;;;0.30;0.30;;;9.80;99.90;;;;;;5076060;28;20174;-70
2022/12/21 10:00:51;;;;;;;0.50;0.50;;;9.90;99.90;;;;;;5074589;28;20199;-68
2022/12/21 10:03:27;;;;;;;0.40;0.40;;;9.90;99.90;;;;;;5076060;28;20180;-69
2022/12/21 10:06:13;;;;;;;0.63;0.63;;;10.00;99.90;;;;;;5075829;28;20531;-72
2022/12/21 10:09:07;;;;;;;0.52;0.52;;;10.00;99.90;;;;;;5075471;28;20211;-68
2022/12/21 10:11:57;;;;;;;0.50;0.50;;;10.10;99.90;;;;;;5076286;28;20285;-72
2022/12/21 10:14:32;;;;;;;0.73;0.68;;;10.10;99.90;;;;;;5075498;28;20712;-68
2022/12/21 10:17:23;;;;;;;0.40;0.40;;;10.00;99.90;;;;;;5075893;28;20169;-68
2022/12/21 10:20:18;;;;;;;0.50;0.50;;;10.00;99.90;;;;;;5073923;28;20258;-69
2022/12/21 10:22:50;;;;;;;1.67;1.58;;;10.10;99.90;;;;;;5075767;28;20627;-67
2022/12/21 10:25:23;;;;;;;0.40;0.40;;;10.10;99.90;;;;;;5075477;28;20177;-67
2022/12/21 10:27:55;;;;;;;0.30;0.30;;;9.90;99.90;;;;;;5075473;28;20298;-69
2022/12/21 10:30:21;;;;;;;1.20;0.82;;;10.00;99.90;;;;;;5072055;28;20270;-67
2022/12/21 10:32:50;;;;;;;0.50;0.50;;;10.10;99.90;;;;;;5075578;28;20201;-67
2022/12/21 10:35:17;;;;;;;0.40;0.40;;;10.10;99.90;;;;;;5075276;28;20426;-68
2022/12/21 10:37:50;;;;;;;5.78;1.50;;;10.20;99.90;;;;;;5075465;28;20185;-68
2022/12/21 10:40:17;;;;;;;0.50;0.50;;;10.20;99.90;;;;;;5075641;28;20247;-67
2022/12/21 10:42:45;;;;;;;0.43;0.43;;;10.20;99.90;;;;;;5074509;28;20197;-69
2022/12/21 10:45:16;;;;;;;0.85;0.85;;;10.30;99.90;;;;;;5074988;28;20657;-70
2022/12/21 10:47:44;;;;;;;0.40;0.40;;;10.30;99.90;;;;;;5075395;28;20178;-69
2022/12/21 10:50:21;;;;;;;1.55;1.50;;;10.30;99.90;;;;;;5075249;28;20189;-69
2022/12/21 10:52:48;;;;;;;0.40;0.40;;;10.30;99.90;;;;;;5075453;28;20173;-68
2022/12/21 10:55:19;;;;;;;0.38;0.38;;;10.30;99.90;;;;;;5074912;28;20174;-69
2022/12/21 10:57:46;;;;;;;0.40;0.40;;;10.30;99.90;;;;;;5074228;28;20245;-69
2022/12/21 11:00:39;;;;;;;0.77;0.77;;;10.30;99.90;;;;;;5074983;28;20649;-70
2022/12/21 11:03:24;;;;;;;1.85;0.77;;;10.40;99.90;;;;;;5074736;28;20208;-67
2022/12/21 11:05:50;;;;;;;0.50;0.50;;;10.30;99.90;;;;;;5074540;28;20195;-67
2022/12/21 11:08:25;;;;;;;0.40;0.40;;;10.20;99.90;;;;;;5074651;28;20169;-68
2022/12/21 11:10:55;;;;;;;1.35;0.98;;;10.10;99.90;;;;;;5074732;28;20478;-67
2022/12/21 11:13:24;;;;;;;0.50;0.50;;;10.20;99.90;;;;;;5074886;28;20165;-71
2022/12/21 11:15:53;;;;;;;0.30;0.30;;;10.30;99.90;;;;;;5074822;28;20197;-69
2022/12/21 11:18:36;;;;;;;0.30;0.30;;;10.30;99.90;;;;;;5075026;28;20165;-70
2022/12/21 11:21:04;;;;;;;0.40;0.40;;;10.40;99.90;;;;;;5074722;28;20547;-69
2022/12/21 11:23:29;;;;;;;1.08;0.60;;;10.50;99.90;;;;;;5073803;28;20180;-70
2022/12/21 11:25:56;;;;;;;0.40;0.40;;;10.50;99.90;;;;;;5074250;28;20169;-67
2022/12/21 11:28:23;;;;;;;0.40;0.40;;;10.50;99.90;;;;;;5074037;28;20494;-68
2022/12/21 11:30:54;;;;;;;0.30;0.30;;;10.50;99.90;;;;;;5072606;28;20201;-68
2022/12/21 11:33:21;;;;;;;0.80;0.80;;;10.50;99.90;;;;;;5073854;28;20514;-71
2022/12/21 11:36:14;;;;;;;0.30;0.30;;;10.50;99.90;;;;;;5073997;28;20174;-68
2022/12/21 11:38:40;;;;;;;0.40;0.40;;;10.60;99.90;;;;;;5074263;28;20192;-70
2022/12/21 11:41:20;;;;;;;0.30;0.30;;;10.60;99.90;;;;;;5074634;28;20173;-69
2022/12/21 11:43:48;;;;;;;0.50;0.50;;;10.50;99.90;;;;;;5074273;28;20222;-70
2022/12/21 11:46:55;;;;;;;0.40;0.40;;;10.50;99.90;;;;;;5073755;28;20252;-70
2022/12/21 11:50:02;;;;;;;0.40;0.40;;;10.50;99.90;;;;;;5073105;28;20200;-69
2022/12/21 11:52:36;;;;;;;0.45;0.45;;;10.40;99.90;;;;;;5074145;28;20197;-70
2022/12/21 11:55:07;;;;;;;0.30;0.30;;;10.50;99.90;;;;;;5073848;28;20600;-71
2022/12/21 11:57:53;;;;;;;5.82;1.88;;;10.60;99.90;;;;;;5074383;28;20166;-68
2022/12/21 12:00:21;;;;;;;0.50;0.50;;;10.60;99.90;;;;;;5071761;28;20193;-70
2022/12/21 12:03:13;;;;;;;0.95;0.95;;;10.60;99.90;;;;;;5073628;28;20173;-69
2022/12/21 12:05:41;;;;;;;0.60;0.40;;;10.70;99.90;;;;;;5073328;28;20169;-70
2022/12/21 12:08:31;;;;;;;0.40;0.40;;;10.70;99.90;;;;;;5071983;28;20622;-70
2022/12/21 12:11:01;;;;;;;0.40;0.40;;;10.60;99.90;;;;;;5072307;28;20193;-70
2022/12/21 12:14:18;;;;;;;0.30;0.30;;;10.50;99.90;;;;;;5073782;28;20185;-71
2022/12/21 12:16:58;;;;;;;1.67;1.52;;;10.50;99.90;;;;;;5072557;28;20185;-70
2022/12/21 12:19:42;;;;;;;1.25;0.93;;;10.50;99.90;;;;;;5073644;28;20193;-70
2022/12/21 12:22:19;;;;;;;0.63;0.63;;;10.50;99.90;;;;;;5073905;28;20208;-73
2022/12/21 12:24:58;;;;;;;1.05;1.05;;;10.60;99.90;;;;;;5074037;28;20169;-70
2022/12/21 12:27:32;;;;;;;0.40;0.40;;;10.60;99.90;;;;;;5073582;28;20180;-69
2022/12/21 12:30:04;;;;;;;0.95;0.85;;;10.50;99.90;;;;;;5073881;28;20196;-69
2022/12/21 12:33:00;;;;;;;0.95;0.95;;;10.50;99.90;;;;;;5073925;28;20205;-69
2022/12/21 12:35:39;;;;;;;0.45;0.45;;;10.50;99.90;;;;;;5072826;28;20546;-71
2022/12/21 12:38:24;;;;;;;0.70;0.43;;;10.40;99.90;;;;;;5073615;28;20193;-71
2022/12/21 12:41:28;;;;;;;0.30;0.30;;;10.50;99.90;;;;;;5073683;28;20201;-71
2022/12/21 12:43:59;;;;;;;0.30;0.30;;;10.60;99.90;;;;;;5073606;28;20181;-71
2022/12/21 12:46:32;;;;;;;0.30;0.30;;;10.50;99.90;;;;;;5073263;28;20173;-69
2022/12/21 12:49:10;;;;;;;0.80;0.40;;;10.40;99.90;;;;;;5073512;28;20518;-71
2022/12/21 12:52:00;;;;;;;0.30;0.30;;;10.40;99.90;;;;;;5073719;28;20593;-69
2022/12/21 12:54:35;;;;;;;0.50;0.50;;;10.50;99.90;;;;;;5073481;28;20620;-70
2022/12/21 12:57:05;;;;;;;0.30;0.30;;;10.50;99.90;;;;;;5073393;28;20227;-71
2022/12/21 12:59:58;;;;;;;0.30;0.30;;;10.60;99.90;;;;;;5073439;28;20192;-67
2022/12/21 13:02:35;;;;;;;0.77;0.77;;;10.60;99.90;;;;;;5073691;28;20220;-71
2022/12/21 13:05:24;;;;;;;0.43;0.43;;;10.50;99.90;;;;;;5073580;28;20252;-73
2022/12/21 13:07:55;;;;;;;0.50;0.50;;;10.30;99.90;;;;;;5073245;28;20173;-69
2022/12/21 13:10:32;;;;;;;0.50;0.47;;;10.30;99.90;;;;;;5073415;28;20189;-70
2022/12/21 13:13:21;;;;;;;0.40;0.40;;;10.20;99.90;;;;;;5072176;28;20174;-70
2022/12/21 13:16:00;;;;;;;0.60;0.60;;;10.30;99.90;;;;;;5071943;28;20174;-70
2022/12/21 13:18:35;;;;;;;0.40;0.40;;;10.30;99.90;;;;;;5073313;28;20197;-70
2022/12/21 13:21:03;;;;;;;0.40;0.40;;;10.30;99.90;;;;;;5072629;28;20169;-71
2022/12/21 13:23:44;;;;;;;0.40;0.40;;;10.30;99.90;;;;;;5076846;28;20223;-70
2022/12/21 13:26:19;;;;;;;0.60;0.60;;;10.30;99.90;;;;;;5075242;28;20169;-71
2022/12/21 13:28:49;;;;;;;0.50;0.50;;;10.10;99.90;;;;;;5076349;28;20693;-71
2022/12/21 13:31:20;;;;;;;1.17;1.17;;;10.10;99.90;;;;;;5077058;28;20587;-70
2022/12/21 13:33:54;;;;;;;1.33;1.30;;;10.10;99.90;;;;;;5076725;28;20223;-69